ASA436 KSEA-KBZN
Flight info
| Callsign | ASA436 |
|---|---|
| Flight time | N/A |
| Altitude | 35000 |
| Route | MONTN2 SEA NORMY MODDA STEVS EATZZ EATZZ1 |
| Aircraft | B738/M-SDE2E3FGHIRWXY/LB1 |
Departure
| Time | 2026-05-01 11:41 |
|---|---|
| Airport | Seattle–Tacoma International Airport (KSEA) |
Arrival
| Time | N/A |
|---|---|
| Airport | Bozeman Yellowstone International Airport (KBZN) |
| Time | Latitude | Longitude | Altitude | Speed | Heading |
|---|---|---|---|---|---|
| 2026-05-01 11:10 | 47.44635 | -122.30309 | 402 ft | 0 kts | 245° |
| 2026-05-01 11:31 | 47.44643 | -122.30285 | 400 ft | 4 kts | 243° |
| 2026-05-01 11:32 | 47.44655 | -122.30250 | 400 ft | 4 kts | 249° |
| 2026-05-01 11:32 | 47.44659 | -122.30215 | 403 ft | 2 kts | 285° |
| 2026-05-01 11:32 | 47.44658 | -122.30212 | 403 ft | 0 kts | 287° |
| 2026-05-01 11:36 | 47.44669 | -122.30244 | 402 ft | 4 kts | 300° |
| 2026-05-01 11:36 | 47.44705 | -122.30299 | 403 ft | 10 kts | 322° |
| 2026-05-01 11:36 | 47.44762 | -122.30378 | 405 ft | 11 kts | 311° |
| 2026-05-01 11:37 | 47.44806 | -122.30503 | 406 ft | 16 kts | 274° |
| 2026-05-01 11:37 | 47.44761 | -122.30628 | 402 ft | 17 kts | 188° |
| 2026-05-01 11:37 | 47.44630 | -122.30631 | 398 ft | 21 kts | 180° |
| 2026-05-01 11:37 | 47.44480 | -122.30632 | 395 ft | 21 kts | 180° |
| 2026-05-01 11:38 | 47.44336 | -122.30634 | 392 ft | 22 kts | 180° |
| 2026-05-01 11:38 | 47.44175 | -122.30634 | 387 ft | 25 kts | 180° |
| 2026-05-01 11:38 | 47.43999 | -122.30638 | 383 ft | 24 kts | 180° |
| 2026-05-01 11:38 | 47.43828 | -122.30637 | 378 ft | 22 kts | 180° |
| 2026-05-01 11:39 | 47.43677 | -122.30638 | 373 ft | 23 kts | 174° |
| 2026-05-01 11:39 | 47.43543 | -122.30563 | 369 ft | 20 kts | 172° |
| 2026-05-01 11:39 | 47.43405 | -122.30561 | 367 ft | 21 kts | 180° |
| 2026-05-01 11:39 | 47.43259 | -122.30569 | 362 ft | 19 kts | 192° |
| 2026-05-01 11:40 | 47.43178 | -122.30665 | 359 ft | 2 kts | 262° |
| 2026-05-01 11:40 | 47.43178 | -122.30667 | 359 ft | 1 kts | 262° |
| 2026-05-01 11:40 | 47.43175 | -122.30706 | 357 ft | 8 kts | 268° |
| 2026-05-01 11:40 | 47.43209 | -122.30798 | 361 ft | 13 kts | 341° |
| 2026-05-01 11:41 | 47.43316 | -122.30804 | 359 ft | 35 kts | 0° |
| 2026-05-01 11:41 | 47.43855 | -122.30799 | 378 ft | 117 kts | 0° |
| 2026-05-01 11:41 | 47.44874 | -122.30793 | 664 ft | 161 kts | 359° |
| 2026-05-01 11:41 | 47.46021 | -122.30818 | 1619 ft | 169 kts | 360° |
| 2026-05-01 11:42 | 47.47217 | -122.30842 | 2413 ft | 187 kts | 360° |
| 2026-05-01 11:42 | 47.48635 | -122.30865 | 2725 ft | 218 kts | 360° |
| 2026-05-01 11:42 | 47.50252 | -122.30889 | 2950 ft | 246 kts | 360° |
| 2026-05-01 11:42 | 47.52047 | -122.30911 | 3403 ft | 264 kts | 360° |
| 2026-05-01 11:43 | 47.53910 | -122.30933 | 4268 ft | 269 kts | 360° |
| 2026-05-01 11:43 | 47.55789 | -122.30954 | 5188 ft | 272 kts | 360° |
| 2026-05-01 11:43 | 47.57697 | -122.30883 | 6034 ft | 277 kts | 10° |
| 2026-05-01 11:44 | 47.60728 | -122.27579 | 7671 ft | 283 kts | 65° |
| 2026-05-01 11:44 | 47.61160 | -122.25018 | 8392 ft | 285 kts | 91° |
| 2026-05-01 11:44 | 47.60792 | -122.22134 | 9193 ft | 287 kts | 114° |
| 2026-05-01 11:44 | 47.59935 | -122.19448 | 10002 ft | 290 kts | 119° |
| 2026-05-01 11:45 | 47.58963 | -122.16749 | 10471 ft | 308 kts | 120° |
| 2026-05-01 11:45 | 47.57895 | -122.13844 | 10650 ft | 333 kts | 120° |
| 2026-05-01 11:45 | 47.56763 | -122.10745 | 11103 ft | 347 kts | 120° |
| 2026-05-01 11:45 | 47.55615 | -122.07561 | 11798 ft | 352 kts | 120° |
| 2026-05-01 11:46 | 47.54481 | -122.04388 | 12560 ft | 355 kts | 120° |
| 2026-05-01 11:46 | 47.53324 | -122.01134 | 13321 ft | 359 kts | 120° |
| 2026-05-01 11:46 | 47.52155 | -121.97837 | 14035 ft | 364 kts | 120° |
| 2026-05-01 11:46 | 47.50968 | -121.94490 | 14685 ft | 368 kts | 120° |
| 2026-05-01 11:47 | 47.49774 | -121.91123 | 15370 ft | 371 kts | 120° |
| 2026-05-01 11:47 | 47.48571 | -121.87735 | 16099 ft | 374 kts | 120° |
| 2026-05-01 11:47 | 47.47348 | -121.84294 | 16765 ft | 377 kts | 120° |
| 2026-05-01 11:47 | 47.46116 | -121.80833 | 17450 ft | 381 kts | 120° |
| 2026-05-01 11:48 | 47.44877 | -121.77358 | 18072 ft | 384 kts | 120° |
| 2026-05-01 11:48 | 47.43733 | -121.73764 | 18674 ft | 390 kts | 112° |
| 2026-05-01 11:48 | 47.43020 | -121.69909 | 19218 ft | 396 kts | 102° |
| 2026-05-01 11:48 | 47.42778 | -121.66168 | 19719 ft | 401 kts | 93° |
| 2026-05-01 11:49 | 47.42741 | -121.62035 | 20302 ft | 403 kts | 92° |
| 2026-05-01 11:49 | 47.42706 | -121.57863 | 20836 ft | 408 kts | 92° |
| 2026-05-01 11:49 | 47.42639 | -121.53656 | 21365 ft | 411 kts | 94° |
| 2026-05-01 11:49 | 47.42296 | -121.49456 | 21882 ft | 413 kts | 104° |
| 2026-05-01 11:50 | 47.41597 | -121.45335 | 22384 ft | 416 kts | 106° |
| 2026-05-01 11:50 | 47.40846 | -121.41248 | 22874 ft | 419 kts | 107° |
| 2026-05-01 11:50 | 47.40068 | -121.37087 | 23360 ft | 422 kts | 107° |
| 2026-05-01 11:50 | 47.39285 | -121.32874 | 23850 ft | 426 kts | 106° |
| 2026-05-01 11:51 | 47.38507 | -121.28635 | 24259 ft | 429 kts | 106° |
| 2026-05-01 11:51 | 47.37734 | -121.24375 | 24678 ft | 431 kts | 106° |
| 2026-05-01 11:51 | 47.36958 | -121.20071 | 25098 ft | 434 kts | 106° |
| 2026-05-01 11:51 | 47.36180 | -121.15755 | 25488 ft | 437 kts | 105° |
| 2026-05-01 11:52 | 47.35396 | -121.11401 | 25872 ft | 440 kts | 105° |
| 2026-05-01 11:52 | 47.34607 | -121.07032 | 26253 ft | 442 kts | 105° |
| 2026-05-01 11:52 | 47.33822 | -121.02696 | 26639 ft | 445 kts | 105° |
| 2026-05-01 11:52 | 47.33017 | -120.98258 | 27010 ft | 447 kts | 105° |
| 2026-05-01 11:53 | 47.32208 | -120.93817 | 27373 ft | 450 kts | 105° |
| 2026-05-01 11:53 | 47.31389 | -120.89329 | 27724 ft | 452 kts | 105° |
| 2026-05-01 11:53 | 47.30569 | -120.84844 | 28083 ft | 455 kts | 105° |
| 2026-05-01 11:53 | 47.29740 | -120.80321 | 28425 ft | 457 kts | 105° |
| 2026-05-01 11:54 | 47.28906 | -120.75784 | 28765 ft | 460 kts | 105° |
| 2026-05-01 11:54 | 47.28077 | -120.71286 | 29111 ft | 462 kts | 105° |
| 2026-05-01 11:54 | 47.27232 | -120.66711 | 29433 ft | 464 kts | 105° |
| 2026-05-01 11:54 | 47.26381 | -120.62109 | 29736 ft | 466 kts | 106° |
| 2026-05-01 11:55 | 47.25523 | -120.57486 | 30048 ft | 469 kts | 106° |
| 2026-05-01 11:55 | 47.24685 | -120.52851 | 30385 ft | 469 kts | 103° |
| 2026-05-01 11:55 | 47.24058 | -120.48142 | 30748 ft | 468 kts | 100° |
| 2026-05-01 11:55 | 47.23534 | -120.43419 | 31112 ft | 467 kts | 99° |
| 2026-05-01 11:56 | 47.23050 | -120.38701 | 31443 ft | 467 kts | 98° |
| 2026-05-01 11:56 | 47.22570 | -120.33974 | 31765 ft | 467 kts | 98° |
| 2026-05-01 11:56 | 47.22082 | -120.29252 | 32092 ft | 466 kts | 98° |
| 2026-05-01 11:56 | 47.21581 | -120.24532 | 32415 ft | 466 kts | 99° |
| 2026-05-01 11:57 | 47.21069 | -120.19832 | 32748 ft | 465 kts | 99° |
| 2026-05-01 11:57 | 47.20724 | -120.16720 | 32952 ft | 465 kts | 99° |
| 2026-05-01 11:57 | 47.20020 | -120.10431 | 33396 ft | 464 kts | 99° |
| 2026-05-01 11:57 | 47.19491 | -120.05750 | 33728 ft | 464 kts | 99° |
| 2026-05-01 11:58 | 47.18966 | -120.01136 | 34054 ft | 463 kts | 99° |
| 2026-05-01 11:58 | 47.18433 | -119.96465 | 34341 ft | 462 kts | 99° |
| 2026-05-01 11:58 | 47.17367 | -119.87155 | 34868 ft | 461 kts | 99° |
| 2026-05-01 11:59 | 47.16832 | -119.82511 | 35092 ft | 461 kts | 99° |
| 2026-05-01 11:59 | 47.15752 | -119.73178 | 35088 ft | 462 kts | 99° |
| 2026-05-01 12:00 | 47.14133 | -119.59312 | 35098 ft | 457 kts | 99° |
| 2026-05-01 12:01 | 47.12508 | -119.45548 | 35109 ft | 454 kts | 99° |
| 2026-05-01 12:01 | 47.11420 | -119.36414 | 35109 ft | 454 kts | 99° |
| 2026-05-01 12:02 | 47.10325 | -119.27287 | 35113 ft | 454 kts | 99° |
| 2026-05-01 12:02 | 47.09222 | -119.18156 | 35106 ft | 454 kts | 99° |
| 2026-05-01 12:03 | 47.08112 | -119.09028 | 35104 ft | 455 kts | 99° |
| 2026-05-01 12:03 | 47.06996 | -118.99919 | 35097 ft | 455 kts | 99° |
| 2026-05-01 12:04 | 47.05867 | -118.90768 | 35096 ft | 456 kts | 99° |
| 2026-05-01 12:04 | 47.04730 | -118.81610 | 35095 ft | 457 kts | 100° |
| 2026-05-01 12:05 | 47.03583 | -118.72435 | 35090 ft | 457 kts | 100° |
| 2026-05-01 12:05 | 47.02044 | -118.60223 | 35088 ft | 457 kts | 100° |
| 2026-05-01 12:06 | 47.00879 | -118.51058 | 35087 ft | 457 kts | 100° |
| 2026-05-01 12:06 | 46.99709 | -118.41904 | 35089 ft | 457 kts | 100° |
| 2026-05-01 12:07 | 46.98540 | -118.32828 | 35086 ft | 456 kts | 100° |
| 2026-05-01 12:07 | 46.97351 | -118.23652 | 35089 ft | 455 kts | 100° |
| 2026-05-01 12:08 | 46.96155 | -118.14480 | 35091 ft | 455 kts | 100° |
| 2026-05-01 12:08 | 46.94964 | -118.05407 | 35088 ft | 454 kts | 100° |
| 2026-05-01 12:09 | 46.93766 | -117.96342 | 35088 ft | 453 kts | 100° |
| 2026-05-01 12:09 | 46.92563 | -117.87297 | 35093 ft | 452 kts | 100° |
| 2026-05-01 12:10 | 46.90739 | -117.73691 | 35096 ft | 451 kts | 100° |
| 2026-05-01 12:11 | 46.88913 | -117.60196 | 35105 ft | 450 kts | 100° |
| 2026-05-01 12:11 | 46.87680 | -117.51154 | 35118 ft | 450 kts | 100° |
| 2026-05-01 12:12 | 46.86455 | -117.42230 | 35130 ft | 449 kts | 100° |
| 2026-05-01 12:12 | 46.85219 | -117.33274 | 35141 ft | 449 kts | 100° |
| 2026-05-01 12:13 | 46.83968 | -117.24270 | 35145 ft | 449 kts | 100° |
| 2026-05-01 12:13 | 46.82727 | -117.15386 | 35151 ft | 448 kts | 100° |
| 2026-05-01 12:14 | 46.81473 | -117.06466 | 35148 ft | 448 kts | 100° |
| 2026-05-01 12:14 | 46.80210 | -116.97542 | 35146 ft | 448 kts | 100° |
| 2026-05-01 12:15 | 46.78955 | -116.88715 | 35142 ft | 447 kts | 100° |
| 2026-05-01 12:15 | 46.77676 | -116.79778 | 35136 ft | 446 kts | 100° |
| 2026-05-01 12:16 | 46.76409 | -116.70980 | 35128 ft | 446 kts | 101° |
| 2026-05-01 12:16 | 46.75123 | -116.62096 | 35117 ft | 445 kts | 101° |
| 2026-05-01 12:17 | 46.73837 | -116.53267 | 35119 ft | 445 kts | 101° |
| 2026-05-01 12:17 | 46.72544 | -116.44439 | 35119 ft | 444 kts | 101° |
| 2026-05-01 12:18 | 46.71253 | -116.35679 | 35123 ft | 444 kts | 101° |
| 2026-05-01 12:18 | 46.69952 | -116.26892 | 35129 ft | 443 kts | 101° |
| 2026-05-01 12:19 | 46.68642 | -116.18101 | 35134 ft | 443 kts | 101° |
| 2026-05-01 12:19 | 46.67329 | -116.09340 | 35140 ft | 442 kts | 101° |
| 2026-05-01 12:20 | 46.66017 | -116.00629 | 35145 ft | 442 kts | 101° |
| 2026-05-01 12:20 | 46.64696 | -115.91907 | 35154 ft | 441 kts | 101° |
| 2026-05-01 12:21 | 46.63366 | -115.83176 | 35160 ft | 441 kts | 101° |
| 2026-05-01 12:21 | 46.62033 | -115.74469 | 35163 ft | 440 kts | 101° |
| 2026-05-01 12:22 | 46.60693 | -115.65768 | 35165 ft | 439 kts | 102° |
| 2026-05-01 12:22 | 46.59359 | -115.57151 | 35170 ft | 439 kts | 102° |
| 2026-05-01 12:23 | 46.58011 | -115.48493 | 35190 ft | 438 kts | 102° |